createdAt,value
2023-01-11T00:00:11.361Z,42.12
2023-01-11T00:05:16.898Z,42.85
2023-01-11T00:10:21.128Z,43.24
2023-01-11T00:15:23.896Z,43.08
2023-01-11T00:20:26.679Z,43.06
2023-01-11T00:25:30.815Z,43.28
2023-01-11T00:30:35.373Z,43.12
2023-01-11T00:35:38.214Z,43.53
2023-01-11T00:40:42.458Z,43.60
2023-01-11T00:46:02.638Z,43.60
2023-01-11T00:51:05.546Z,43.61
2023-01-11T00:56:09.821Z,43.51
2023-01-11T01:01:12.547Z,43.66
2023-01-11T01:06:15.273Z,43.77
2023-01-11T01:11:19.432Z,43.72
2023-01-11T01:16:22.195Z,43.86
2023-01-11T01:21:24.960Z,44.09
2023-01-11T01:26:29.661Z,43.97
2023-01-11T01:31:32.505Z,44.28
2023-01-11T01:36:35.295Z,44.06
2023-01-11T01:41:39.517Z,44.10
2023-01-11T01:46:42.335Z,44.19
2023-01-11T01:51:46.817Z,44.08
2023-01-11T01:56:52.073Z,44.02
2023-01-11T02:01:55.919Z,44.02
2023-01-11T02:07:00.222Z,44.25
2023-01-11T02:12:04.855Z,44.29
2023-01-11T02:17:07.597Z,44.31
2023-01-11T02:22:34.390Z,44.61
2023-01-11T02:27:59.447Z,44.40
2023-01-11T02:33:06.694Z,44.59
2023-01-11T02:38:12.294Z,44.69
2023-01-11T02:43:35.768Z,44.54
2023-01-11T02:48:43.184Z,44.56
2023-01-11T02:53:48.155Z,44.78
2023-01-11T02:58:53.184Z,44.69
2023-01-11T03:03:56.263Z,44.88
2023-01-11T03:09:07.659Z,44.96
2023-01-11T03:14:16.265Z,45.13
2023-01-11T03:19:23.639Z,45.20
2023-01-11T03:24:31.069Z,45.29
2023-01-11T03:29:36.857Z,45.60
2023-01-11T03:34:41.645Z,45.81
2023-01-11T03:39:45.914Z,45.99
2023-01-11T03:44:53.004Z,46.22
2023-01-11T03:49:56.744Z,46.60
2023-01-11T03:54:59.533Z,46.98
2023-01-11T04:00:05.169Z,47.24
2023-01-11T04:05:08.748Z,47.40
2023-01-11T04:10:12.586Z,47.58
2023-01-11T04:15:17.703Z,47.62
2023-01-11T04:20:20.423Z,47.74
2023-01-11T04:25:23.154Z,48.16
2023-01-11T04:30:27.291Z,48.03
2023-01-11T04:35:30.264Z,48.21
2023-01-11T04:40:33.121Z,48.06
2023-01-11T04:45:37.239Z,47.91
2023-01-11T04:50:40.046Z,48.29
2023-01-11T04:55:43.499Z,48.29
2023-01-11T05:00:47.792Z,48.25
2023-01-11T05:05:57.022Z,48.30
2023-01-11T05:11:00.807Z,48.37
2023-01-11T05:16:05.406Z,48.49
2023-01-11T05:21:08.440Z,48.28
2023-01-11T05:26:12.467Z,48.45
2023-01-11T05:31:17.013Z,48.38
2023-01-11T05:36:21.534Z,48.52
2023-01-11T05:41:25.745Z,48.44
2023-01-11T05:46:29.939Z,48.45
2023-01-11T05:51:32.716Z,48.57
2023-01-11T05:56:35.506Z,48.74
2023-01-11T06:01:39.725Z,48.85
2023-01-11T06:06:42.624Z,48.49
2023-01-11T06:11:45.460Z,48.56
2023-01-11T06:16:49.649Z,48.84
2023-01-11T06:21:52.440Z,48.90
2023-01-11T06:26:55.305Z,48.58
2023-01-11T06:31:59.462Z,48.81
2023-01-11T06:37:02.367Z,48.74
2023-01-11T06:42:05.450Z,48.79
2023-01-11T06:47:09.621Z,48.80
2023-01-11T06:52:12.353Z,48.94
2023-01-11T06:57:15.221Z,48.81
2023-01-11T07:02:19.588Z,48.95
2023-01-11T07:07:22.364Z,48.63
2023-01-11T07:12:25.251Z,48.95
2023-01-11T07:17:29.365Z,48.81
2023-01-11T07:22:34.673Z,49.08
2023-01-11T07:27:37.514Z,48.95
2023-01-11T07:32:41.706Z,48.96
2023-01-11T07:37:45.564Z,49.04
2023-01-11T07:43:07.328Z,48.79
2023-01-11T07:48:11.534Z,48.93
2023-01-11T07:53:14.525Z,48.58
2023-01-11T07:58:17.344Z,48.72
2023-01-11T08:03:21.677Z,48.61
2023-01-11T08:08:24.536Z,48.59
2023-01-11T08:13:45.094Z,48.86
2023-01-11T08:18:49.845Z,48.91
2023-01-11T08:23:54.027Z,48.56
2023-01-11T08:28:56.839Z,48.87
2023-01-11T08:34:00.970Z,48.79
2023-01-11T08:39:03.931Z,48.83
2023-01-11T08:44:06.894Z,48.85
2023-01-11T08:49:12.388Z,48.76
2023-01-11T08:54:16.802Z,48.83
2023-01-11T08:59:22.015Z,48.95
2023-01-11T09:04:26.514Z,48.83
2023-01-11T09:09:29.394Z,48.74
2023-01-11T09:14:32.163Z,48.77
2023-01-11T09:19:36.239Z,48.65
2023-01-11T09:24:39.033Z,48.77
2023-01-11T09:29:42.347Z,43.44
2023-01-11T09:34:47.380Z,44.55
2023-01-11T09:39:51.449Z,45.02
2023-01-11T09:44:56.690Z,45.00
2023-01-11T09:50:02.525Z,45.77
2023-01-11T09:55:05.884Z,47.01
2023-01-11T10:00:14.843Z,47.57
2023-01-11T10:05:29.678Z,48.00
2023-01-11T10:18:28.171Z,45.19
2023-01-11T10:21:36.654Z,44.63
2023-01-11T10:26:41.453Z,44.87
2023-01-11T10:31:58.267Z,44.60
2023-01-11T10:37:18.627Z,44.70
2023-01-11T10:42:22.633Z,44.39
2023-01-11T10:47:27.867Z,44.62
2023-01-11T10:52:36.703Z,44.30
2023-01-11T10:58:01.925Z,44.66
2023-01-11T11:03:16.637Z,44.72
2023-01-11T11:08:26.612Z,44.89
2023-01-11T11:13:38.911Z,44.59
2023-01-11T11:18:41.828Z,44.82
2023-01-11T11:23:55.506Z,44.68
2023-01-11T11:29:01.850Z,45.07
2023-01-11T11:34:07.927Z,44.75
2023-01-11T11:39:18.902Z,42.59
2023-01-11T11:44:24.349Z,47.46
2023-01-11T11:49:27.245Z,46.54
2023-01-11T11:54:32.239Z,46.47
2023-01-11T11:59:35.031Z,47.09
2023-01-11T12:04:47.095Z,48.09
2023-01-11T12:09:59.879Z,47.89
2023-01-11T12:15:08.314Z,47.66
2023-01-11T12:20:32.584Z,47.61
2023-01-11T12:25:38.133Z,47.47
2023-01-11T12:30:44.868Z,47.65
2023-01-11T12:35:51.364Z,47.56
2023-01-11T12:41:04.228Z,47.51
2023-01-11T12:46:13.025Z,47.41
2023-01-11T12:51:24.170Z,47.44
2023-01-11T12:56:39.343Z,47.38
2023-01-11T13:01:43.889Z,47.35
2023-01-11T13:06:49.656Z,47.34
2023-01-11T13:11:56.174Z,47.40
2023-01-11T13:17:02.451Z,47.56
2023-01-11T13:22:05.735Z,47.84
2023-01-11T13:27:14.029Z,47.63
2023-01-11T13:32:17.887Z,47.73
2023-01-11T13:37:22.472Z,48.04
2023-01-11T13:42:30.761Z,48.11
2023-01-11T13:47:36.199Z,47.96
2023-01-11T13:52:45.352Z,48.27
2023-01-11T13:57:52.353Z,48.26
2023-01-11T14:02:57.553Z,48.18
2023-01-11T14:08:08.078Z,47.93
2023-01-11T14:13:48.691Z,47.71
2023-01-11T14:18:54.091Z,47.61
2023-01-11T14:23:57.011Z,47.84
2023-01-11T14:29:08.086Z,47.79
2023-01-11T14:34:47.360Z,47.59
2023-01-11T14:40:22.679Z,47.41
2023-01-11T14:45:32.863Z,47.05
2023-01-11T14:50:41.659Z,46.97
2023-01-11T14:55:46.397Z,46.90
2023-01-11T15:01:11.173Z,46.75
2023-01-11T15:06:16.738Z,46.43
2023-01-11T15:11:37.975Z,46.06
2023-01-11T15:16:59.749Z,46.00
2023-01-11T15:22:03.474Z,45.80
2023-01-11T15:27:06.384Z,45.64
2023-01-11T15:32:20.434Z,45.48
2023-01-11T15:37:36.599Z,45.51
2023-01-11T15:43:05.850Z,45.29
2023-01-11T15:48:17.950Z,45.21
2023-01-11T15:53:40.922Z,45.03
2023-01-11T15:58:59.928Z,45.04
2023-01-11T16:04:05.782Z,44.73
2023-01-11T16:09:22.739Z,44.81
2023-01-11T16:14:52.284Z,44.75
2023-01-11T16:19:57.182Z,44.62
2023-01-11T16:25:01.316Z,44.62
2023-01-11T16:30:04.302Z,44.41
2023-01-11T16:35:18.714Z,44.41
2023-01-11T16:40:24.473Z,44.28
2023-01-11T16:45:40.255Z,44.36
2023-01-11T16:50:45.329Z,44.28
2023-01-11T16:55:52.393Z,44.14
2023-01-11T17:00:59.820Z,44.63
2023-01-11T17:06:16.211Z,44.75
2023-01-11T17:11:27.782Z,44.89
2023-01-11T17:16:31.688Z,44.84
2023-01-11T17:21:35.886Z,45.02
2023-01-11T17:26:42.781Z,44.60
2023-01-11T17:31:45.648Z,44.34
2023-01-11T17:36:49.826Z,44.65
2023-01-11T17:42:10.021Z,44.62
2023-01-11T17:47:12.822Z,44.60
2023-01-11T17:52:21.482Z,44.57
2023-01-11T17:57:24.477Z,44.44
2023-01-11T18:02:27.507Z,44.37
2023-01-11T18:07:31.794Z,44.63
2023-01-11T18:12:34.857Z,44.38
2023-01-11T18:17:38.954Z,44.26
2023-01-11T18:22:43.950Z,44.14
2023-01-11T18:27:46.965Z,44.18
2023-01-11T18:32:49.760Z,44.05
2023-01-11T18:37:53.958Z,43.76
2023-01-11T18:42:56.711Z,43.77
2023-01-11T18:47:59.451Z,43.70
2023-01-11T18:53:03.581Z,43.66
2023-01-11T18:58:06.639Z,43.59
2023-01-11T19:03:10.625Z,43.51
2023-01-11T19:08:14.770Z,43.43
2023-01-11T19:13:19.188Z,43.56
2023-01-11T19:18:21.935Z,43.58
2023-01-11T19:23:26.186Z,43.38
2023-01-11T19:28:29.113Z,43.48
2023-01-11T19:33:32.029Z,43.54
2023-01-11T19:38:36.219Z,43.40
2023-01-11T19:43:44.752Z,43.52
2023-01-11T19:48:47.599Z,43.55
2023-01-11T19:53:51.723Z,43.88
2023-01-11T19:58:54.477Z,43.34
2023-01-11T20:03:57.259Z,43.21
2023-01-11T20:09:01.498Z,43.09
2023-01-11T20:14:04.247Z,43.19
2023-01-11T20:19:07.168Z,43.12
2023-01-11T20:24:12.852Z,43.17
2023-01-11T20:29:15.699Z,42.97
2023-01-11T20:34:18.781Z,43.11
2023-01-11T20:39:23.000Z,42.99
2023-01-11T20:44:27.965Z,42.84
2023-01-11T20:49:30.780Z,42.68
2023-01-11T20:54:35.137Z,42.89
2023-01-11T20:59:37.980Z,42.93
2023-01-11T21:04:40.813Z,42.93
2023-01-11T21:09:45.015Z,42.95
2023-01-11T21:14:48.291Z,43.08
2023-01-11T21:19:51.055Z,43.15
2023-01-11T21:24:55.269Z,43.26
2023-01-11T21:29:58.044Z,43.11
2023-01-11T21:35:00.826Z,43.34
2023-01-11T21:40:05.734Z,43.19
2023-01-11T21:45:09.783Z,43.22
2023-01-11T21:50:12.650Z,43.28
2023-01-11T21:55:17.063Z,43.28
2023-01-11T22:00:20.883Z,43.40
2023-01-11T22:05:24.331Z,43.24
2023-01-11T22:10:28.539Z,43.37
2023-01-11T22:15:31.271Z,43.28
2023-01-11T22:20:34.104Z,43.39
2023-01-11T22:25:38.243Z,43.31
2023-01-11T22:30:41.065Z,43.48
2023-01-11T22:35:43.832Z,43.44
2023-01-11T22:40:47.985Z,43.44
2023-01-11T22:45:57.638Z,43.54
2023-01-11T22:51:00.602Z,43.69
2023-01-11T22:56:05.333Z,43.86
2023-01-11T23:01:12.450Z,44.05
2023-01-11T23:06:17.393Z,44.04
2023-01-11T23:11:36.012Z,43.91
2023-01-11T23:16:39.164Z,44.13
2023-01-11T23:21:42.003Z,44.14
2023-01-11T23:26:46.242Z,44.25
2023-01-11T23:31:49.283Z,44.41
2023-01-11T23:36:52.107Z,44.42
2023-01-11T23:42:13.747Z,44.38
2023-01-11T23:47:23.736Z,44.15
2023-01-11T23:52:27.441Z,44.17
2023-01-11T23:57:31.582Z,44.22
